sensor_id;sensor_type;location;lat;lon;timestamp;pressure;altitude;pressure_sealevel;temperature;humidity
54465;BME280;40374;49.480;20.016;2022-12-20T00:01:33;62409.59;;;-145.97;100.00
54465;BME280;40374;49.480;20.016;2022-12-20T00:04:03;62409.59;;;-145.97;100.00
54465;BME280;40374;49.480;20.016;2022-12-20T00:06:34;62409.59;;;-145.97;100.00
54465;BME280;40374;49.480;20.016;2022-12-20T00:09:04;62409.59;;;-145.97;100.00
54465;BME280;40374;49.480;20.016;2022-12-20T00:11:33;62409.59;;;-145.97;100.00
54465;BME280;40374;49.480;20.016;2022-12-20T00:14:01;62409.59;;;-145.97;100.00
54465;BME280;40374;49.480;20.016;2022-12-20T00:16:29;62409.59;;;-145.97;100.00
54465;BME280;40374;49.480;20.016;2022-12-20T00:18:58;62409.59;;;-145.97;100.00
54465;BME280;40374;49.480;20.016;2022-12-20T00:33:37;62409.59;;;-145.97;100.00
54465;BME280;40374;49.480;20.016;2022-12-20T00:36:08;62409.59;;;-145.97;100.00
54465;BME280;40374;49.480;20.016;2022-12-20T00:38:35;62409.59;;;-145.97;100.00
54465;BME280;40374;49.480;20.016;2022-12-20T00:41:06;62409.59;;;-145.97;100.00
54465;BME280;40374;49.480;20.016;2022-12-20T00:43:36;62409.59;;;-145.97;100.00
54465;BME280;40374;49.480;20.016;2022-12-20T00:46:04;62409.59;;;-145.97;100.00
54465;BME280;40374;49.480;20.016;2022-12-20T00:48:33;62409.59;;;-145.97;100.00
54465;BME280;40374;49.480;20.016;2022-12-20T00:51:06;62409.59;;;-145.97;100.00
54465;BME280;40374;49.480;20.016;2022-12-20T00:53:35;62409.59;;;-145.97;100.00
54465;BME280;40374;49.480;20.016;2022-12-20T00:56:03;62409.59;;;-145.97;100.00
54465;BME280;40374;49.480;20.016;2022-12-20T00:58:33;62409.59;;;-145.97;100.00
54465;BME280;40374;49.480;20.016;2022-12-20T01:01:02;62409.59;;;-145.97;100.00
54465;BME280;40374;49.480;20.016;2022-12-20T01:03:30;62409.59;;;-145.97;100.00
54465;BME280;40374;49.480;20.016;2022-12-20T01:06:00;62409.59;;;-145.97;100.00
54465;BME280;40374;49.480;20.016;2022-12-20T01:08:29;62409.59;;;-145.97;100.00
54465;BME280;40374;49.480;20.016;2022-12-20T01:11:02;62409.59;;;-145.97;100.00
54465;BME280;40374;49.480;20.016;2022-12-20T01:13:31;62409.59;;;-145.97;100.00
54465;BME280;40374;49.480;20.016;2022-12-20T01:16:07;62409.59;;;-145.97;100.00
54465;BME280;40374;49.480;20.016;2022-12-20T01:18:36;62409.59;;;-145.97;100.00
54465;BME280;40374;49.480;20.016;2022-12-20T01:21:07;62409.59;;;-145.97;100.00
54465;BME280;40374;49.480;20.016;2022-12-20T01:23:35;62409.59;;;-145.97;100.00
54465;BME280;40374;49.480;20.016;2022-12-20T01:26:05;62409.59;;;-145.97;100.00
54465;BME280;40374;49.480;20.016;2022-12-20T01:28:36;62409.59;;;-145.97;100.00
54465;BME280;40374;49.480;20.016;2022-12-20T01:31:09;62409.59;;;-145.97;100.00
54465;BME280;40374;49.480;20.016;2022-12-20T01:33:37;62409.59;;;-145.97;100.00
54465;BME280;40374;49.480;20.016;2022-12-20T01:36:09;62409.59;;;-145.97;100.00
54465;BME280;40374;49.480;20.016;2022-12-20T01:38:36;62409.59;;;-145.97;100.00
54465;BME280;40374;49.480;20.016;2022-12-20T01:41:04;62409.59;;;-145.97;100.00
54465;BME280;40374;49.480;20.016;2022-12-20T01:46:15;62409.59;;;-145.97;100.00
54465;BME280;40374;49.480;20.016;2022-12-20T01:48:49;62409.59;;;-145.97;100.00
54465;BME280;40374;49.480;20.016;2022-12-20T01:51:20;62409.59;;;-145.97;100.00
54465;BME280;40374;49.480;20.016;2022-12-20T01:53:50;62409.59;;;-145.97;100.00
54465;BME280;40374;49.480;20.016;2022-12-20T01:56:21;62409.59;;;-145.97;100.00
54465;BME280;40374;49.480;20.016;2022-12-20T01:58:50;62409.59;;;-145.97;100.00
54465;BME280;40374;49.480;20.016;2022-12-20T02:01:22;62409.59;;;-145.97;100.00
54465;BME280;40374;49.480;20.016;2022-12-20T02:03:51;62409.59;;;-145.97;100.00
54465;BME280;40374;49.480;20.016;2022-12-20T02:06:23;62409.59;;;-145.97;100.00
54465;BME280;40374;49.480;20.016;2022-12-20T02:08:54;62409.59;;;-145.97;100.00
54465;BME280;40374;49.480;20.016;2022-12-20T02:17:25;62409.59;;;-145.97;100.00
54465;BME280;40374;49.480;20.016;2022-12-20T02:25:41;62409.59;;;-145.97;100.00
54465;BME280;40374;49.480;20.016;2022-12-20T02:30:56;62409.59;;;-145.97;100.00
54465;BME280;40374;49.480;20.016;2022-12-20T02:33:27;62409.59;;;-145.97;100.00
54465;BME280;40374;49.480;20.016;2022-12-20T02:35:54;62409.59;;;-145.97;100.00
54465;BME280;40374;49.480;20.016;2022-12-20T02:40:56;62409.59;;;-145.97;100.00
54465;BME280;40374;49.480;20.016;2022-12-20T02:43:25;62409.59;;;-145.97;100.00
54465;BME280;40374;49.480;20.016;2022-12-20T02:46:14;62409.59;;;-145.97;100.00
54465;BME280;40374;49.480;20.016;2022-12-20T02:48:45;62409.59;;;-145.97;100.00
54465;BME280;40374;49.480;20.016;2022-12-20T02:51:15;62409.59;;;-145.97;100.00
54465;BME280;40374;49.480;20.016;2022-12-20T02:53:44;62409.59;;;-145.97;100.00
54465;BME280;40374;49.480;20.016;2022-12-20T02:58:50;62409.59;;;-145.97;100.00
54465;BME280;40374;49.480;20.016;2022-12-20T03:01:30;62409.59;;;-145.97;100.00
54465;BME280;40374;49.480;20.016;2022-12-20T03:04:01;62409.59;;;-145.97;100.00
54465;BME280;40374;49.480;20.016;2022-12-20T03:06:29;62409.59;;;-145.97;100.00
54465;BME280;40374;49.480;20.016;2022-12-20T03:08:57;62409.59;;;-145.97;100.00
54465;BME280;40374;49.480;20.016;2022-12-20T03:11:27;62409.59;;;-145.97;100.00
54465;BME280;40374;49.480;20.016;2022-12-20T03:13:55;62409.59;;;-145.97;100.00
54465;BME280;40374;49.480;20.016;2022-12-20T03:16:23;62409.59;;;-145.97;100.00
54465;BME280;40374;49.480;20.016;2022-12-20T03:18:54;62409.59;;;-145.97;100.00
54465;BME280;40374;49.480;20.016;2022-12-20T03:21:22;62409.59;;;-145.97;100.00
54465;BME280;40374;49.480;20.016;2022-12-20T03:23:49;62409.59;;;-145.97;100.00
54465;BME280;40374;49.480;20.016;2022-12-20T03:26:17;62409.59;;;-145.97;100.00
54465;BME280;40374;49.480;20.016;2022-12-20T03:28:51;62409.59;;;-145.97;100.00
54465;BME280;40374;49.480;20.016;2022-12-20T03:31:21;62409.59;;;-145.97;100.00
54465;BME280;40374;49.480;20.016;2022-12-20T03:33:53;62409.59;;;-145.97;100.00
54465;BME280;40374;49.480;20.016;2022-12-20T03:36:21;62409.59;;;-145.97;100.00
54465;BME280;40374;49.480;20.016;2022-12-20T03:38:57;62409.59;;;-145.97;100.00
54465;BME280;40374;49.480;20.016;2022-12-20T03:41:27;62409.59;;;-145.97;100.00
54465;BME280;40374;49.480;20.016;2022-12-20T03:43:55;62409.59;;;-145.97;100.00
54465;BME280;40374;49.480;20.016;2022-12-20T03:46:23;62409.59;;;-145.97;100.00
54465;BME280;40374;49.480;20.016;2022-12-20T03:48:51;62409.59;;;-145.97;100.00
54465;BME280;40374;49.480;20.016;2022-12-20T03:51:18;62409.59;;;-145.97;100.00
54465;BME280;40374;49.480;20.016;2022-12-20T03:53:46;62409.59;;;-145.97;100.00
54465;BME280;40374;49.480;20.016;2022-12-20T03:56:14;62409.59;;;-145.97;100.00
54465;BME280;40374;49.480;20.016;2022-12-20T03:58:42;62409.59;;;-145.97;100.00
54465;BME280;40374;49.480;20.016;2022-12-20T04:01:26;62409.59;;;-145.97;100.00
54465;BME280;40374;49.480;20.016;2022-12-20T04:03:55;62409.59;;;-145.97;100.00
54465;BME280;40374;49.480;20.016;2022-12-20T04:06:23;62409.59;;;-145.97;100.00
54465;BME280;40374;49.480;20.016;2022-12-20T04:08:51;62409.59;;;-145.97;100.00
54465;BME280;40374;49.480;20.016;2022-12-20T04:11:26;62409.59;;;-145.97;100.00
54465;BME280;40374;49.480;20.016;2022-12-20T04:14:06;62409.59;;;-145.97;100.00
54465;BME280;40374;49.480;20.016;2022-12-20T04:16:34;62409.59;;;-145.97;100.00
54465;BME280;40374;49.480;20.016;2022-12-20T04:19:02;62409.59;;;-145.97;100.00
54465;BME280;40374;49.480;20.016;2022-12-20T04:21:35;62409.59;;;-145.97;100.00
54465;BME280;40374;49.480;20.016;2022-12-20T04:24:04;62409.59;;;-145.97;100.00
54465;BME280;40374;49.480;20.016;2022-12-20T04:26:41;62409.59;;;-145.97;100.00
54465;BME280;40374;49.480;20.016;2022-12-20T04:29:10;62409.59;;;-145.97;100.00
54465;BME280;40374;49.480;20.016;2022-12-20T04:31:39;62409.59;;;-145.97;100.00
54465;BME280;40374;49.480;20.016;2022-12-20T04:34:07;62409.59;;;-145.97;100.00
54465;BME280;40374;49.480;20.016;2022-12-20T04:36:34;62409.59;;;-145.97;100.00
54465;BME280;40374;49.480;20.016;2022-12-20T04:39:06;62409.59;;;-145.97;100.00
54465;BME280;40374;49.480;20.016;2022-12-20T04:41:43;62409.59;;;-145.97;100.00
54465;BME280;40374;49.480;20.016;2022-12-20T04:44:12;62409.59;;;-145.97;100.00
54465;BME280;40374;49.480;20.016;2022-12-20T04:46:40;62409.59;;;-145.97;100.00
54465;BME280;40374;49.480;20.016;2022-12-20T04:49:11;62409.59;;;-145.97;100.00
54465;BME280;40374;49.480;20.016;2022-12-20T04:51:43;62409.59;;;-145.97;100.00
54465;BME280;40374;49.480;20.016;2022-12-20T04:54:12;62409.59;;;-145.97;100.00
54465;BME280;40374;49.480;20.016;2022-12-20T04:56:45;62409.59;;;-145.97;100.00
54465;BME280;40374;49.480;20.016;2022-12-20T04:59:18;62409.59;;;-145.97;100.00
54465;BME280;40374;49.480;20.016;2022-12-20T05:01:48;62409.59;;;-145.97;100.00
54465;BME280;40374;49.480;20.016;2022-12-20T05:04:31;62409.59;;;-145.97;100.00
54465;BME280;40374;49.480;20.016;2022-12-20T05:07:04;62409.59;;;-145.97;100.00
54465;BME280;40374;49.480;20.016;2022-12-20T05:09:32;62409.59;;;-145.97;100.00
54465;BME280;40374;49.480;20.016;2022-12-20T05:12:00;62409.59;;;-145.97;100.00
54465;BME280;40374;49.480;20.016;2022-12-20T05:14:28;62409.59;;;-145.97;100.00
54465;BME280;40374;49.480;20.016;2022-12-20T05:16:56;62409.59;;;-145.97;100.00
54465;BME280;40374;49.480;20.016;2022-12-20T05:19:25;62409.59;;;-145.97;100.00
54465;BME280;40374;49.480;20.016;2022-12-20T05:21:52;62409.59;;;-145.97;100.00
54465;BME280;40374;49.480;20.016;2022-12-20T05:24:42;62409.59;;;-145.97;100.00
54465;BME280;40374;49.480;20.016;2022-12-20T05:27:31;62409.59;;;-145.97;100.00
54465;BME280;40374;49.480;20.016;2022-12-20T05:29:59;62409.59;;;-145.97;100.00
54465;BME280;40374;49.480;20.016;2022-12-20T05:32:27;62409.59;;;-145.97;100.00
54465;BME280;40374;49.480;20.016;2022-12-20T05:34:56;62409.59;;;-145.97;100.00
54465;BME280;40374;49.480;20.016;2022-12-20T05:37:23;62409.59;;;-145.97;100.00
54465;BME280;40374;49.480;20.016;2022-12-20T05:39:51;62409.59;;;-145.97;100.00
54465;BME280;40374;49.480;20.016;2022-12-20T05:42:21;62409.59;;;-145.97;100.00
54465;BME280;40374;49.480;20.016;2022-12-20T05:44:51;62409.59;;;-145.97;100.00
54465;BME280;40374;49.480;20.016;2022-12-20T05:47:20;62409.59;;;-145.97;100.00
54465;BME280;40374;49.480;20.016;2022-12-20T05:49:55;62409.59;;;-145.97;100.00
54465;BME280;40374;49.480;20.016;2022-12-20T05:52:22;62409.59;;;-145.97;100.00
54465;BME280;40374;49.480;20.016;2022-12-20T05:54:50;62409.59;;;-145.97;100.00
54465;BME280;40374;49.480;20.016;2022-12-20T05:57:21;62409.59;;;-145.97;100.00
54465;BME280;40374;49.480;20.016;2022-12-20T05:59:52;62409.59;;;-145.97;100.00
54465;BME280;40374;49.480;20.016;2022-12-20T06:02:22;62409.59;;;-145.97;100.00
54465;BME280;40374;49.480;20.016;2022-12-20T06:04:57;62409.59;;;-145.97;100.00
54465;BME280;40374;49.480;20.016;2022-12-20T06:07:25;62409.59;;;-145.97;100.00
54465;BME280;40374;49.480;20.016;2022-12-20T06:09:58;62409.59;;;-145.97;100.00
54465;BME280;40374;49.480;20.016;2022-12-20T06:12:37;62409.59;;;-145.97;100.00
54465;BME280;40374;49.480;20.016;2022-12-20T06:15:05;62409.59;;;-145.97;100.00
54465;BME280;40374;49.480;20.016;2022-12-20T06:17:37;62409.59;;;-145.97;100.00
54465;BME280;40374;49.480;20.016;2022-12-20T06:20:06;62409.59;;;-145.97;100.00
54465;BME280;40374;49.480;20.016;2022-12-20T06:22:34;62409.59;;;-145.97;100.00
54465;BME280;40374;49.480;20.016;2022-12-20T06:25:04;62409.59;;;-145.97;100.00
54465;BME280;40374;49.480;20.016;2022-12-20T06:27:33;62409.59;;;-145.97;100.00
54465;BME280;40374;49.480;20.016;2022-12-20T06:30:09;62409.59;;;-145.97;100.00
54465;BME280;40374;49.480;20.016;2022-12-20T06:32:53;62409.59;;;-145.97;100.00
54465;BME280;40374;49.480;20.016;2022-12-20T06:35:20;62409.59;;;-145.97;100.00
54465;BME280;40374;49.480;20.016;2022-12-20T06:37:48;62409.59;;;-145.97;100.00
54465;BME280;40374;49.480;20.016;2022-12-20T06:40:16;62409.59;;;-145.97;100.00
54465;BME280;40374;49.480;20.016;2022-12-20T06:42:43;62409.59;;;-145.97;100.00
54465;BME280;40374;49.480;20.016;2022-12-20T06:45:12;62409.59;;;-145.97;100.00
54465;BME280;40374;49.480;20.016;2022-12-20T06:47:39;62409.59;;;-145.97;100.00
54465;BME280;40374;49.480;20.016;2022-12-20T06:50:07;62409.59;;;-145.97;100.00
54465;BME280;40374;49.480;20.016;2022-12-20T06:52:35;62409.59;;;-145.97;100.00
54465;BME280;40374;49.480;20.016;2022-12-20T06:55:03;62409.59;;;-145.97;100.00
54465;BME280;40374;49.480;20.016;2022-12-20T06:57:34;62409.59;;;-145.97;100.00
54465;BME280;40374;49.480;20.016;2022-12-20T07:00:03;62409.59;;;-145.97;100.00
54465;BME280;40374;49.480;20.016;2022-12-20T07:02:31;62409.59;;;-145.97;100.00
54465;BME280;40374;49.480;20.016;2022-12-20T07:04:59;62409.59;;;-145.97;100.00
54465;BME280;40374;49.480;20.016;2022-12-20T07:07:26;62409.59;;;-145.97;100.00
54465;BME280;40374;49.480;20.016;2022-12-20T07:09:53;62409.59;;;-145.97;100.00
54465;BME280;40374;49.480;20.016;2022-12-20T07:12:21;62409.59;;;-145.97;100.00
54465;BME280;40374;49.480;20.016;2022-12-20T07:14:48;62409.59;;;-145.97;100.00
54465;BME280;40374;49.480;20.016;2022-12-20T07:17:16;62409.59;;;-145.97;100.00
54465;BME280;40374;49.480;20.016;2022-12-20T07:19:43;62409.59;;;-145.97;100.00
54465;BME280;40374;49.480;20.016;2022-12-20T07:22:16;62409.59;;;-145.97;100.00
54465;BME280;40374;49.480;20.016;2022-12-20T07:24:44;62409.59;;;-145.97;100.00
54465;BME280;40374;49.480;20.016;2022-12-20T07:27:11;62409.59;;;-145.97;100.00
54465;BME280;40374;49.480;20.016;2022-12-20T07:29:40;62409.59;;;-145.97;100.00
54465;BME280;40374;49.480;20.016;2022-12-20T07:32:08;62409.59;;;-145.97;100.00
54465;BME280;40374;49.480;20.016;2022-12-20T07:34:36;62409.59;;;-145.97;100.00
54465;BME280;40374;49.480;20.016;2022-12-20T07:37:03;62409.59;;;-145.97;100.00
54465;BME280;40374;49.480;20.016;2022-12-20T07:41:56;95891.44;;;-2.10;100.00
54465;BME280;40374;49.480;20.016;2022-12-20T07:44:24;95888.41;;;-1.99;100.00
54465;BME280;40374;49.480;20.016;2022-12-20T07:46:52;95888.69;;;-1.79;100.00
54465;BME280;40374;49.480;20.016;2022-12-20T07:49:19;95872.16;;;-1.73;100.00
54465;BME280;40374;49.480;20.016;2022-12-20T07:51:51;95861.06;;;-1.68;100.00
54465;BME280;40374;49.480;20.016;2022-12-20T07:54:29;95878.47;;;-1.44;100.00
54465;BME280;40374;49.480;20.016;2022-12-20T07:57:03;95871.66;;;-1.38;100.00
54465;BME280;40374;49.480;20.016;2022-12-20T07:59:37;95869.63;;;-1.21;100.00
54465;BME280;40374;49.480;20.016;2022-12-20T08:02:10;95873.69;;;-1.04;100.00
54465;BME280;40374;49.480;20.016;2022-12-20T08:04:41;95866.41;;;-1.02;100.00
54465;BME280;40374;49.480;20.016;2022-12-20T08:07:09;95868.63;;;-0.84;100.00
54465;BME280;40374;49.480;20.016;2022-12-20T08:09:39;95869.53;;;-0.77;100.00
54465;BME280;40374;49.480;20.016;2022-12-20T08:12:11;95867.47;;;-0.60;100.00
54465;BME280;40374;49.480;20.016;2022-12-20T08:14:40;95870.81;;;-0.73;100.00
54465;BME280;40374;49.480;20.016;2022-12-20T08:17:08;95860.94;;;-0.64;100.00
54465;BME280;40374;49.480;20.016;2022-12-20T08:19:36;95868.06;;;-0.43;100.00
54465;BME280;40374;49.480;20.016;2022-12-20T08:22:04;95865.84;;;-0.18;100.00
54465;BME280;40374;49.480;20.016;2022-12-20T08:24:33;95867.25;;;0.06;100.00
54465;BME280;40374;49.480;20.016;2022-12-20T08:27:00;95863.13;;;0.25;100.00
54465;BME280;40374;49.480;20.016;2022-12-20T08:29:28;95858.00;;;0.17;100.00
54465;BME280;40374;49.480;20.016;2022-12-20T08:31:55;95849.44;;;0.15;100.00
54465;BME280;40374;49.480;20.016;2022-12-20T08:34:23;95874.16;;;0.29;100.00
54465;BME280;40374;49.480;20.016;2022-12-20T08:36:50;95865.41;;;0.28;100.00
54465;BME280;40374;49.480;20.016;2022-12-20T08:39:18;95852.94;;;0.22;100.00
54465;BME280;40374;49.480;20.016;2022-12-20T08:41:45;95860.03;;;0.15;100.00
54465;BME280;40374;49.480;20.016;2022-12-20T08:44:13;95858.94;;;0.09;100.00
54465;BME280;40374;49.480;20.016;2022-12-20T08:46:41;95868.94;;;0.14;100.00
54465;BME280;40374;49.480;20.016;2022-12-20T08:49:08;95865.78;;;0.25;100.00
54465;BME280;40374;49.480;20.016;2022-12-20T08:51:35;95852.66;;;0.38;100.00
54465;BME280;40374;49.480;20.016;2022-12-20T08:54:04;95839.63;;;0.44;100.00
54465;BME280;40374;49.480;20.016;2022-12-20T08:56:31;95850.41;;;0.77;100.00
54465;BME280;40374;49.480;20.016;2022-12-20T08:58:59;95846.50;;;1.21;100.00
54465;BME280;40374;49.480;20.016;2022-12-20T09:01:26;95849.09;;;1.96;100.00
54465;BME280;40374;49.480;20.016;2022-12-20T09:03:56;95840.00;;;2.83;100.00
54465;BME280;40374;49.480;20.016;2022-12-20T09:06:24;95832.56;;;3.76;100.00
54465;BME280;40374;49.480;20.016;2022-12-20T09:08:52;95822.84;;;4.38;96.44
54465;BME280;40374;49.480;20.016;2022-12-20T09:11:21;95813.66;;;4.78;94.05
54465;BME280;40374;49.480;20.016;2022-12-20T09:13:52;95805.19;;;5.18;88.91
54465;BME280;40374;49.480;20.016;2022-12-20T09:16:23;95807.53;;;5.56;86.18
54465;BME280;40374;49.480;20.016;2022-12-20T09:18:53;95818.66;;;5.53;80.03
54465;BME280;40374;49.480;20.016;2022-12-20T09:21:30;95805.19;;;4.99;71.86
54465;BME280;40374;49.480;20.016;2022-12-20T09:23:58;95788.41;;;4.43;76.03
54465;BME280;40374;49.480;20.016;2022-12-20T09:26:25;95807.63;;;4.02;77.70
54465;BME280;40374;49.480;20.016;2022-12-20T09:28:53;95799.38;;;3.53;82.07
54465;BME280;40374;49.480;20.016;2022-12-20T09:31:23;95797.81;;;3.07;85.99
54465;BME280;40374;49.480;20.016;2022-12-20T09:33:55;95798.13;;;2.72;94.44
54465;BME280;40374;49.480;20.016;2022-12-20T09:36:26;95811.66;;;2.57;100.00
54465;BME280;40374;49.480;20.016;2022-12-20T09:38:55;95805.78;;;2.42;100.00
54465;BME280;40374;49.480;20.016;2022-12-20T09:41:33;95795.19;;;2.35;100.00
54465;BME280;40374;49.480;20.016;2022-12-20T09:44:11;95795.38;;;2.34;100.00
54465;BME280;40374;49.480;20.016;2022-12-20T09:46:41;95783.97;;;2.20;100.00
54465;BME280;40374;49.480;20.016;2022-12-20T09:49:14;95807.44;;;2.23;100.00
54465;BME280;40374;49.480;20.016;2022-12-20T09:59:44;95788.50;;;1.73;100.00
54465;BME280;40374;49.480;20.016;2022-12-20T10:02:20;95790.31;;;1.66;100.00
54465;BME280;40374;49.480;20.016;2022-12-20T10:05:15;95791.13;;;1.59;100.00
54465;BME280;40374;49.480;20.016;2022-12-20T10:08:15;95792.53;;;1.55;100.00
54465;BME280;40374;49.480;20.016;2022-12-20T10:10:58;95794.41;;;1.75;100.00
54465;BME280;40374;49.480;20.016;2022-12-20T10:16:41;95777.84;;;1.99;100.00
54465;BME280;40374;49.480;20.016;2022-12-20T10:24:34;95796.16;;;2.48;100.00
54465;BME280;40374;49.480;20.016;2022-12-20T10:27:15;95778.53;;;2.67;100.00
54465;BME280;40374;49.480;20.016;2022-12-20T10:29:44;95780.59;;;2.71;100.00
54465;BME280;40374;49.480;20.016;2022-12-20T10:32:17;95764.00;;;2.76;100.00
54465;BME280;40374;49.480;20.016;2022-12-20T10:35:20;95761.69;;;2.93;100.00
54465;BME280;40374;49.480;20.016;2022-12-20T10:38:05;95757.69;;;3.15;100.00
54465;BME280;40374;49.480;20.016;2022-12-20T10:44:18;95758.59;;;3.34;100.00
54465;BME280;40374;49.480;20.016;2022-12-20T10:46:49;95752.44;;;3.34;100.00
54465;BME280;40374;49.480;20.016;2022-12-20T10:52:03;95737.31;;;3.02;100.00
54465;BME280;40374;49.480;20.016;2022-12-20T10:54:41;95735.97;;;2.87;100.00
54465;BME280;40374;49.480;20.016;2022-12-20T10:57:28;95708.50;;;2.61;100.00
54465;BME280;40374;49.480;20.016;2022-12-20T11:00:04;95690.00;;;2.34;100.00
54465;BME280;40374;49.480;20.016;2022-12-20T11:02:34;95712.09;;;2.21;100.00
54465;BME280;40374;49.480;20.016;2022-12-20T11:07:58;95692.13;;;2.19;100.00
54465;BME280;40374;49.480;20.016;2022-12-20T11:10:47;95689.75;;;1.84;100.00
54465;BME280;40374;49.480;20.016;2022-12-20T11:13:23;95683.22;;;1.93;100.00
54465;BME280;40374;49.480;20.016;2022-12-20T11:15:55;95664.44;;;1.81;100.00
54465;BME280;40374;49.480;20.016;2022-12-20T11:18:37;95687.69;;;1.86;100.00
54465;BME280;40374;49.480;20.016;2022-12-20T11:21:13;95670.81;;;1.67;100.00
54465;BME280;40374;49.480;20.016;2022-12-20T11:23:52;95666.91;;;1.70;100.00
54465;BME280;40374;49.480;20.016;2022-12-20T11:35:18;95647.41;;;1.31;100.00
54465;BME280;40374;49.480;20.016;2022-12-20T11:51:42;95671.84;;;1.33;100.00
54465;BME280;40374;49.480;20.016;2022-12-20T11:54:18;95665.72;;;1.32;100.00
54465;BME280;40374;49.480;20.016;2022-12-20T11:56:50;95648.63;;;1.35;100.00
54465;BME280;40374;49.480;20.016;2022-12-20T11:59:36;95653.69;;;1.56;100.00
54465;BME280;40374;49.480;20.016;2022-12-20T12:02:12;95644.47;;;1.66;100.00
54465;BME280;40374;49.480;20.016;2022-12-20T12:04:47;95639.59;;;1.62;100.00
54465;BME280;40374;49.480;20.016;2022-12-20T12:07:20;95658.94;;;1.76;100.00
54465;BME280;40374;49.480;20.016;2022-12-20T12:10:43;95649.34;;;1.82;100.00
54465;BME280;40374;49.480;20.016;2022-12-20T12:15:33;95659.94;;;1.89;100.00
54465;BME280;40374;49.480;20.016;2022-12-20T12:18:14;95658.31;;;1.94;100.00
54465;BME280;40374;49.480;20.016;2022-12-20T12:21:05;95662.56;;;2.09;100.00
54465;BME280;40374;49.480;20.016;2022-12-20T12:23:54;95657.41;;;2.14;100.00
54465;BME280;40374;49.480;20.016;2022-12-20T12:26:27;95649.69;;;2.06;100.00
54465;BME280;40374;49.480;20.016;2022-12-20T12:28:58;95645.63;;;2.03;100.00
54465;BME280;40374;49.480;20.016;2022-12-20T12:31:43;95639.72;;;2.01;100.00
54465;BME280;40374;49.480;20.016;2022-12-20T12:34:25;95638.28;;;1.98;100.00
54465;BME280;40374;49.480;20.016;2022-12-20T12:45:01;95634.38;;;2.14;100.00
54465;BME280;40374;49.480;20.016;2022-12-20T12:50:42;95627.19;;;2.21;100.00
54465;BME280;40374;49.480;20.016;2022-12-20T12:53:19;95624.78;;;2.07;100.00
54465;BME280;40374;49.480;20.016;2022-12-20T12:55:51;95620.25;;;2.14;100.00
54465;BME280;40374;49.480;20.016;2022-12-20T12:58:34;95610.97;;;1.91;100.00
54465;BME280;40374;49.480;20.016;2022-12-20T13:01:09;95626.00;;;2.11;100.00
54465;BME280;40374;49.480;20.016;2022-12-20T13:11:34;95611.78;;;1.92;100.00
54465;BME280;40374;49.480;20.016;2022-12-20T13:19:52;95612.03;;;1.77;100.00
54465;BME280;40374;49.480;20.016;2022-12-20T13:22:24;95605.31;;;1.81;100.00
54465;BME280;40374;49.480;20.016;2022-12-20T13:24:59;95611.66;;;1.67;100.00
54465;BME280;40374;49.480;20.016;2022-12-20T13:27:37;95586.16;;;1.66;100.00
54465;BME280;40374;49.480;20.016;2022-12-20T13:37:53;95583.00;;;1.30;100.00
54465;BME280;40374;49.480;20.016;2022-12-20T13:40:37;95589.06;;;1.44;100.00
54465;BME280;40374;49.480;20.016;2022-12-20T13:43:29;95583.56;;;1.46;100.00
54465;BME280;40374;49.480;20.016;2022-12-20T13:46:12;95592.13;;;1.41;100.00
54465;BME280;40374;49.480;20.016;2022-12-20T13:51:16;95577.50;;;1.18;100.00
54465;BME280;40374;49.480;20.016;2022-12-20T13:54:06;95561.63;;;1.05;100.00
54465;BME280;40374;49.480;20.016;2022-12-20T13:59:16;95573.81;;;1.06;100.00
54465;BME280;40374;49.480;20.016;2022-12-20T14:01:59;95564.47;;;1.04;100.00
54465;BME280;40374;49.480;20.016;2022-12-20T14:04:39;95569.16;;;1.01;100.00
54465;BME280;40374;49.480;20.016;2022-12-20T14:07:12;95561.81;;;0.84;100.00
54465;BME280;40374;49.480;20.016;2022-12-20T14:09:44;95550.81;;;0.67;100.00
54465;BME280;40374;49.480;20.016;2022-12-20T14:12:15;95553.47;;;0.60;100.00
54465;BME280;40374;49.480;20.016;2022-12-20T14:14:52;95572.59;;;0.62;100.00
54465;BME280;40374;49.480;20.016;2022-12-20T14:17:27;95574.81;;;0.52;100.00
54465;BME280;40374;49.480;20.016;2022-12-20T14:20:34;95561.81;;;0.70;100.00
54465;BME280;40374;49.480;20.016;2022-12-20T14:23:39;95574.00;;;0.51;100.00
54465;BME280;40374;49.480;20.016;2022-12-20T14:26:00;95580.09;;;0.45;100.00
54465;BME280;40374;49.480;20.016;2022-12-20T14:28:33;95568.06;;;0.29;100.00
54465;BME280;40374;49.480;20.016;2022-12-20T14:31:03;95564.59;;;0.15;100.00
54465;BME280;40374;49.480;20.016;2022-12-20T14:33:35;95584.50;;;0.05;100.00
54465;BME280;40374;49.480;20.016;2022-12-20T14:38:46;95582.84;;;0.04;100.00
54465;BME280;40374;49.480;20.016;2022-12-20T14:41:34;95561.06;;;0.02;100.00
54465;BME280;40374;49.480;20.016;2022-12-20T14:44:19;95567.22;;;0.09;100.00
54465;BME280;40374;49.480;20.016;2022-12-20T14:46:51;95574.38;;;0.22;100.00
54465;BME280;40374;49.480;20.016;2022-12-20T14:52:16;95572.72;;;0.14;100.00
54465;BME280;40374;49.480;20.016;2022-12-20T14:57:51;95586.97;;;0.19;100.00
54465;BME280;40374;49.480;20.016;2022-12-20T15:00:29;95589.78;;;0.05;100.00
54465;BME280;40374;49.480;20.016;2022-12-20T15:03:10;95582.69;;;0.12;100.00
54465;BME280;40374;49.480;20.016;2022-12-20T15:05:45;95601.00;;;0.20;100.00
54465;BME280;40374;49.480;20.016;2022-12-20T15:08:26;95590.78;;;0.04;100.00
54465;BME280;40374;49.480;20.016;2022-12-20T15:13:31;95581.16;;;-0.11;100.00
54465;BME280;40374;49.480;20.016;2022-12-20T15:16:00;95570.75;;;-0.19;100.00